createdAt,value
2018-02-15T00:01:41.434Z,39.90
2018-02-15T00:04:09.818Z,41.90
2018-02-15T00:06:38.230Z,42.80
2018-02-15T00:09:07.014Z,41.37
2018-02-15T00:11:35.887Z,41.87
2018-02-15T00:14:04.255Z,42.17
2018-02-15T00:16:32.632Z,43.90
2018-02-15T00:19:01.019Z,40.83
2018-02-15T00:21:29.389Z,41.47
2018-02-15T00:23:57.829Z,44.37
2018-02-15T00:26:26.211Z,44.07
2018-02-15T00:28:54.563Z,44.60
2018-02-15T00:31:23.478Z,40.43
2018-02-15T00:33:51.852Z,41.17
2018-02-15T00:36:20.228Z,42.77
2018-02-15T00:38:48.599Z,39.90
2018-02-15T00:41:16.988Z,37.57
2018-02-15T00:43:45.371Z,40.83
2018-02-15T00:46:13.731Z,42.07
2018-02-15T00:48:42.508Z,38.67
2018-02-15T00:51:11.283Z,39.13
2018-02-15T00:53:39.685Z,41.07
2018-02-15T00:56:08.447Z,40.27
2018-02-15T00:58:36.847Z,41.47
2018-02-15T01:01:05.706Z,41.90
2018-02-15T01:03:34.066Z,38.03
2018-02-15T01:06:02.960Z,41.17
2018-02-15T01:08:31.331Z,42.47
2018-02-15T01:10:59.998Z,43.10
2018-02-15T01:13:28.391Z,42.50
2018-02-15T01:15:56.743Z,43.30
2018-02-15T01:18:25.106Z,43.40
2018-02-15T01:20:53.960Z,41.77
2018-02-15T01:23:22.437Z,40.90
2018-02-15T01:25:50.844Z,42.93
2018-02-15T01:28:19.609Z,42.60
2018-02-15T01:30:48.077Z,41.27
2018-02-15T01:33:17.117Z,39.87
2018-02-15T01:35:45.944Z,39.47
2018-02-15T01:38:14.336Z,41.03
2018-02-15T01:40:42.688Z,38.57
2018-02-15T01:43:11.095Z,39.73
2018-02-15T01:45:39.484Z,40.13
2018-02-15T01:48:07.933Z,41.63
2018-02-15T01:50:36.293Z,39.70
2018-02-15T01:53:04.656Z,42.30
2018-02-15T01:55:33.495Z,41.67
2018-02-15T01:58:01.904Z,44.43
2018-02-15T02:00:30.314Z,41.87
2018-02-15T02:02:58.688Z,40.93
2018-02-15T02:05:27.546Z,44.80
2018-02-15T02:07:55.951Z,42.00
2018-02-15T02:10:24.729Z,46.23
2018-02-15T02:12:53.119Z,45.30
2018-02-15T02:15:21.948Z,48.20
2018-02-15T02:17:50.312Z,45.60
2018-02-15T02:20:18.735Z,46.87
2018-02-15T02:22:47.108Z,47.20
2018-02-15T02:25:15.502Z,46.63
2018-02-15T02:27:44.010Z,49.40
2018-02-15T02:30:12.366Z,43.20
2018-02-15T02:32:40.724Z,44.30
2018-02-15T02:35:09.107Z,43.33
2018-02-15T02:37:37.522Z,46.57
2018-02-15T02:40:06.284Z,45.50
2018-02-15T02:42:34.649Z,46.30
2018-02-15T02:45:03.026Z,44.70
2018-02-15T02:47:31.412Z,43.53
2018-02-15T02:49:59.815Z,39.57
2018-02-15T02:52:28.192Z,38.03
2018-02-15T02:54:56.553Z,37.90
2018-02-15T02:57:24.924Z,36.57
2018-02-15T02:59:53.281Z,33.70
2018-02-15T03:02:21.660Z,35.53
2018-02-15T03:04:50.015Z,33.07
2018-02-15T03:07:18.365Z,34.83
2018-02-15T03:09:46.731Z,33.47
2018-02-15T03:12:15.111Z,34.60
2018-02-15T03:14:43.529Z,35.10
2018-02-15T03:17:12.022Z,35.60
2018-02-15T03:19:40.384Z,37.10
2018-02-15T03:22:09.150Z,38.43
2018-02-15T03:24:37.585Z,36.77
2018-02-15T03:27:06.007Z,33.43
2018-02-15T03:29:34.363Z,34.47
2018-02-15T03:32:02.789Z,33.00
2018-02-15T03:34:31.615Z,34.20
2018-02-15T03:36:59.977Z,34.67
2018-02-15T03:39:28.360Z,36.77
2018-02-15T03:41:56.729Z,36.30
2018-02-15T03:44:25.147Z,36.10
2018-02-15T03:46:53.626Z,37.47
2018-02-15T03:49:22.081Z,36.80
2018-02-15T03:51:50.456Z,37.07
2018-02-15T03:54:18.846Z,36.07
2018-02-15T03:56:47.213Z,36.00
2018-02-15T03:59:15.618Z,35.87
2018-02-15T04:01:44.012Z,35.70
2018-02-15T04:04:12.385Z,33.40
2018-02-15T04:06:40.747Z,37.63
2018-02-15T04:09:09.238Z,38.80
2018-02-15T04:11:38.394Z,37.50
2018-02-15T04:14:06.807Z,36.70
2018-02-15T04:16:35.170Z,35.77
2018-02-15T04:19:04.283Z,37.50
2018-02-15T04:21:32.653Z,37.13
2018-02-15T04:24:01.003Z,36.40
2018-02-15T04:26:29.365Z,37.00
2018-02-15T04:28:58.116Z,38.33
2018-02-15T04:31:26.486Z,37.87
2018-02-15T04:33:54.922Z,37.73
2018-02-15T04:36:23.699Z,37.70
2018-02-15T04:38:52.439Z,36.17
2018-02-15T04:41:20.787Z,38.80
2018-02-15T04:43:49.162Z,37.97
2018-02-15T04:46:17.517Z,38.97
2018-02-15T04:48:46.288Z,37.97
2018-02-15T04:51:14.635Z,39.10
2018-02-15T04:53:43.129Z,40.87
2018-02-15T04:56:11.512Z,38.47
2018-02-15T04:58:39.873Z,39.33
2018-02-15T05:01:08.269Z,37.40
2018-02-15T05:03:36.619Z,36.83
2018-02-15T05:06:05.029Z,39.73
2018-02-15T05:08:33.393Z,39.50
2018-02-15T05:11:01.745Z,39.60
2018-02-15T05:13:30.110Z,36.67
2018-02-15T05:15:58.863Z,40.60
2018-02-15T05:18:27.244Z,37.47
2018-02-15T05:20:55.599Z,40.70
2018-02-15T05:23:23.959Z,42.37
2018-02-15T05:25:52.317Z,38.87
2018-02-15T05:28:20.742Z,42.40
2018-02-15T05:30:49.123Z,40.33
2018-02-15T05:33:17.595Z,39.40
2018-02-15T05:35:45.976Z,40.07
2018-02-15T05:38:14.660Z,39.10
2018-02-15T05:40:43.152Z,39.93
2018-02-15T05:43:11.499Z,37.90
2018-02-15T05:45:39.905Z,36.47
2018-02-15T05:48:08.274Z,36.90
2018-02-15T05:50:36.622Z,35.13
2018-02-15T05:53:04.991Z,34.50
2018-02-15T05:55:34.239Z,33.20
2018-02-15T05:58:02.710Z,31.80
2018-02-15T06:00:31.355Z,32.57
2018-02-15T06:02:59.712Z,32.73
2018-02-15T06:05:28.168Z,35.27
2018-02-15T06:07:56.542Z,32.03
2018-02-15T06:10:26.785Z,31.30
2018-02-15T06:12:57.609Z,31.87
2018-02-15T06:15:26.948Z,34.70
2018-02-15T06:17:55.826Z,38.07
2018-02-15T06:20:24.711Z,32.77
2018-02-15T06:22:55.625Z,32.20
2018-02-15T06:25:25.573Z,33.47
2018-02-15T06:27:55.675Z,35.10
2018-02-15T06:30:24.351Z,30.03
2018-02-15T06:32:55.725Z,35.00
2018-02-15T06:35:27.243Z,34.73
2018-02-15T06:37:57.629Z,33.93
2018-02-15T06:40:27.369Z,37.33
2018-02-15T06:42:55.752Z,35.97
2018-02-15T06:45:25.846Z,35.87
2018-02-15T06:47:54.195Z,34.47
2018-02-15T06:50:24.441Z,35.07
2018-02-15T06:52:55.733Z,34.80
2018-02-15T06:55:27.043Z,33.33
2018-02-15T06:57:57.418Z,31.67
2018-02-15T07:00:28.521Z,32.53
2018-02-15T07:02:59.714Z,30.30
2018-02-15T07:05:30.299Z,35.13
2018-02-15T07:08:01.168Z,32.67
2018-02-15T07:10:31.638Z,33.37
2018-02-15T07:13:02.039Z,33.13
2018-02-15T07:15:33.255Z,34.13
2018-02-15T07:18:04.130Z,34.23
2018-02-15T07:20:35.428Z,35.27
2018-02-15T07:23:06.303Z,35.57
2018-02-15T07:25:36.859Z,34.63
2018-02-15T07:28:07.695Z,34.43
2018-02-15T07:30:38.629Z,34.53
2018-02-15T07:33:09.120Z,36.90
2018-02-15T07:35:40.296Z,36.00
2018-02-15T07:38:09.142Z,34.97
2018-02-15T07:40:37.488Z,38.87
2018-02-15T07:43:05.839Z,35.87
2018-02-15T07:45:34.592Z,34.07
2018-02-15T07:48:02.989Z,34.57
2018-02-15T07:50:31.344Z,33.73
2018-02-15T07:52:59.710Z,32.80
2018-02-15T07:55:28.064Z,37.83
2018-02-15T07:57:56.530Z,38.07
2018-02-15T08:00:24.898Z,36.67
2018-02-15T08:02:53.644Z,35.90
2018-02-15T08:05:21.999Z,35.90
2018-02-15T08:07:50.367Z,37.77
2018-02-15T08:10:18.881Z,33.50
2018-02-15T08:12:47.377Z,34.00
2018-02-15T08:15:15.741Z,34.17
2018-02-15T08:17:44.221Z,32.87
2018-02-15T08:20:12.603Z,36.87
2018-02-15T08:22:40.986Z,34.87
2018-02-15T08:25:09.336Z,33.87
2018-02-15T08:27:37.692Z,33.47
2018-02-15T08:30:06.475Z,32.77
2018-02-15T08:32:35.333Z,34.20
2018-02-15T08:35:03.706Z,31.53
2018-02-15T08:37:32.095Z,32.43
2018-02-15T08:40:00.449Z,35.03
2018-02-15T08:42:29.557Z,36.67
2018-02-15T08:44:57.902Z,35.33
2018-02-15T08:47:26.310Z,34.50
2018-02-15T08:49:54.656Z,33.37
2018-02-15T08:52:23.008Z,33.63
2018-02-15T08:54:51.756Z,34.20
2018-02-15T08:57:20.123Z,32.30
2018-02-15T08:59:48.500Z,31.63
2018-02-15T09:02:16.863Z,35.70
2018-02-15T09:04:45.227Z,35.13
2018-02-15T09:07:13.596Z,34.30
2018-02-15T09:09:42.346Z,33.00
2018-02-15T09:12:11.045Z,35.07
2018-02-15T09:14:39.491Z,33.60
2018-02-15T09:17:07.852Z,31.87
2018-02-15T09:19:36.204Z,32.60
2018-02-15T09:22:05.040Z,32.57
2018-02-15T09:24:33.387Z,31.10
2018-02-15T09:27:01.772Z,30.43
2018-02-15T09:29:31.040Z,32.00
2018-02-15T09:31:59.787Z,27.17
2018-02-15T09:34:28.159Z,31.37
2018-02-15T09:36:56.556Z,27.60
2018-02-15T09:39:24.907Z,28.90
2018-02-15T09:41:53.260Z,28.50
2018-02-15T09:44:21.617Z,29.50
2018-02-15T09:46:50.060Z,31.17
2018-02-15T09:49:18.445Z,31.77
2018-02-15T09:51:46.818Z,29.90
2018-02-15T09:54:15.185Z,30.70
2018-02-15T09:56:43.535Z,30.30
2018-02-15T09:59:11.887Z,27.80
2018-02-15T10:01:40.332Z,29.53
2018-02-15T10:04:08.686Z,26.47
2018-02-15T10:06:37.027Z,29.20
2018-02-15T10:09:05.783Z,28.60
2018-02-15T10:11:34.161Z,29.57
2018-02-15T10:14:02.642Z,28.00
2018-02-15T10:16:31.011Z,27.90
2018-02-15T10:18:59.361Z,30.50
2018-02-15T10:21:27.769Z,29.80
2018-02-15T10:23:56.164Z,30.27
2018-02-15T10:26:24.640Z,27.53
2018-02-15T10:28:52.984Z,27.17
2018-02-15T10:31:21.336Z,26.33
2018-02-15T10:33:50.175Z,28.07
2018-02-15T10:36:18.523Z,25.33
2018-02-15T10:38:46.913Z,28.00
2018-02-15T10:41:15.268Z,25.77
2018-02-15T10:43:43.709Z,25.53
2018-02-15T10:46:12.053Z,24.97
2018-02-15T10:48:40.403Z,25.20
2018-02-15T10:51:09.248Z,26.37
2018-02-15T10:53:37.608Z,26.33
2018-02-15T10:56:05.964Z,27.70
2018-02-15T10:58:34.308Z,24.27
2018-02-15T11:01:08.259Z,24.70
2018-02-15T11:03:36.600Z,26.37
2018-02-15T11:06:04.947Z,26.70
2018-02-15T11:08:33.320Z,27.10
2018-02-15T11:11:01.704Z,27.57
2018-02-15T11:13:30.113Z,24.97
2018-02-15T11:15:58.600Z,26.47
2018-02-15T11:18:27.454Z,26.53
2018-02-15T11:20:55.827Z,25.40
2018-02-15T11:23:24.166Z,23.50
2018-02-15T11:25:53.000Z,25.07
2018-02-15T11:28:21.368Z,24.77
2018-02-15T11:30:49.787Z,25.23
2018-02-15T11:33:18.138Z,25.77
2018-02-15T11:35:46.515Z,24.27
2018-02-15T11:38:14.864Z,24.73
2018-02-15T11:40:43.219Z,26.17
2018-02-15T11:43:11.958Z,28.67
2018-02-15T11:45:40.331Z,25.30
2018-02-15T11:48:08.675Z,27.00
2018-02-15T11:50:37.040Z,27.63
2018-02-15T11:53:05.804Z,26.40
2018-02-15T11:55:34.287Z,24.87
2018-02-15T11:58:02.632Z,25.87
2018-02-15T12:00:30.984Z,25.53
2018-02-15T12:02:59.396Z,26.07
2018-02-15T12:05:27.756Z,27.07
2018-02-15T12:07:56.091Z,26.10
2018-02-15T12:10:24.505Z,25.83
2018-02-15T12:12:52.855Z,25.97
2018-02-15T12:15:21.701Z,25.97
2018-02-15T12:17:50.611Z,26.00
2018-02-15T12:20:19.377Z,25.03
2018-02-15T12:22:47.732Z,25.70
2018-02-15T12:25:16.077Z,23.93
2018-02-15T12:27:44.921Z,27.30
2018-02-15T12:30:13.300Z,24.20
2018-02-15T12:32:41.674Z,26.30
2018-02-15T12:35:10.068Z,26.80
2018-02-15T12:37:38.486Z,24.07
2018-02-15T12:40:07.323Z,25.73
2018-02-15T12:42:35.701Z,27.07
2018-02-15T12:45:04.068Z,27.57
2018-02-15T12:47:32.412Z,27.07
2018-02-15T12:50:01.163Z,25.97
2018-02-15T12:52:29.539Z,25.20
2018-02-15T12:54:57.928Z,27.87
2018-02-15T12:57:26.288Z,26.30
2018-02-15T12:59:54.636Z,27.63
2018-02-15T13:02:22.995Z,26.93
2018-02-15T13:04:51.738Z,27.40
2018-02-15T13:07:20.115Z,27.30
2018-02-15T13:09:48.488Z,27.60
2018-02-15T13:12:34.783Z,26.80
2018-02-15T13:15:03.167Z,26.87
2018-02-15T13:17:31.516Z,28.07
2018-02-15T13:20:17.816Z,27.50
2018-02-15T13:22:48.868Z,27.10
2018-02-15T13:25:17.261Z,26.17
2018-02-15T13:28:03.512Z,27.30
2018-02-15T13:30:32.347Z,26.60
2018-02-15T13:33:00.695Z,28.40
2018-02-15T13:35:29.035Z,28.57
2018-02-15T13:37:57.400Z,28.20
2018-02-15T13:40:25.791Z,25.83
2018-02-15T13:42:54.136Z,28.37
2018-02-15T13:45:22.497Z,28.17
2018-02-15T13:47:51.001Z,26.60
2018-02-15T13:50:19.392Z,29.53
2018-02-15T13:52:47.856Z,28.30
2018-02-15T13:55:16.207Z,29.23
2018-02-15T13:57:44.589Z,26.57
2018-02-15T14:00:13.000Z,27.67
2018-02-15T14:02:41.387Z,27.67
2018-02-15T14:05:09.746Z,27.47
2018-02-15T14:07:38.094Z,28.27
2018-02-15T14:10:06.865Z,27.87
2018-02-15T14:12:35.214Z,27.50
2018-02-15T14:15:03.582Z,26.80
2018-02-15T14:17:31.991Z,28.20
2018-02-15T14:20:00.351Z,27.13
2018-02-15T14:22:28.715Z,30.40
2018-02-15T14:24:57.067Z,26.20
2018-02-15T14:27:25.537Z,25.90
2018-02-15T14:29:54.283Z,28.90
2018-02-15T14:32:22.651Z,28.73
2018-02-15T14:34:51.103Z,30.23
2018-02-15T14:37:19.499Z,29.83
2018-02-15T14:39:47.865Z,27.97
2018-02-15T14:42:16.236Z,27.07
2018-02-15T14:44:44.581Z,23.37
2018-02-15T14:47:13.422Z,24.10
2018-02-15T14:49:41.811Z,24.83
2018-02-15T14:52:10.187Z,21.47
2018-02-15T14:54:38.550Z,23.00
2018-02-15T14:57:07.026Z,23.27
2018-02-15T14:59:35.379Z,20.83
2018-02-15T15:02:04.270Z,22.70
2018-02-15T15:04:33.080Z,22.50
2018-02-15T15:07:01.484Z,21.13
2018-02-15T15:09:30.183Z,22.33
2018-02-15T15:11:58.647Z,21.80
2018-02-15T15:14:27.010Z,21.57
2018-02-15T15:16:55.390Z,23.37
2018-02-15T15:19:23.764Z,21.00
2018-02-15T15:21:52.107Z,20.50
2018-02-15T15:24:20.871Z,21.00
2018-02-15T15:26:49.229Z,21.67
2018-02-15T15:29:17.626Z,21.50
2018-02-15T15:31:45.983Z,20.83
2018-02-15T15:34:14.331Z,23.53
2018-02-15T15:36:42.683Z,22.50
2018-02-15T15:39:11.168Z,21.60
2018-02-15T15:41:39.920Z,22.43
2018-02-15T15:44:08.287Z,21.33
2018-02-15T15:46:38.316Z,21.70
2018-02-15T15:49:06.704Z,20.13
2018-02-15T15:51:35.179Z,21.83
2018-02-15T15:54:03.542Z,20.63
2018-02-15T15:56:31.888Z,21.10
2018-02-15T15:59:00.316Z,21.17
2018-02-15T16:01:28.667Z,21.37
2018-02-15T16:03:57.063Z,24.30
2018-02-15T16:06:25.488Z,21.90
2018-02-15T16:08:53.919Z,22.27
2018-02-15T16:11:22.308Z,25.27
2018-02-15T16:13:50.647Z,22.23
2018-02-15T16:16:19.010Z,20.73
2018-02-15T16:18:53.478Z,19.90
2018-02-15T16:21:21.837Z,21.43
2018-02-15T16:23:50.241Z,21.27
2018-02-15T16:26:18.591Z,21.63
2018-02-15T16:28:46.941Z,21.60
2018-02-15T16:31:15.814Z,22.10
2018-02-15T16:33:44.175Z,22.37
2018-02-15T16:36:12.545Z,21.43
2018-02-15T16:38:40.911Z,20.20
2018-02-15T16:41:09.260Z,24.10
2018-02-15T16:43:37.675Z,22.57
2018-02-15T16:46:06.016Z,22.83
2018-02-15T16:48:34.453Z,21.20
2018-02-15T16:51:02.819Z,21.67
2018-02-15T16:53:31.315Z,20.63
2018-02-15T16:55:59.684Z,21.53
2018-02-15T16:58:28.062Z,23.17
2018-02-15T17:00:56.423Z,22.40
2018-02-15T17:03:24.783Z,22.97
2018-02-15T17:05:53.135Z,22.63
2018-02-15T17:08:21.504Z,21.97
2018-02-15T17:10:50.247Z,20.43
2018-02-15T17:13:18.609Z,21.63
2018-02-15T17:15:47.013Z,21.30
2018-02-15T17:18:15.485Z,19.87
2018-02-15T17:20:43.847Z,21.20
2018-02-15T17:23:12.280Z,19.60
2018-02-15T17:25:40.632Z,20.80
2018-02-15T17:28:08.990Z,19.67
2018-02-15T17:30:37.339Z,19.27
2018-02-15T17:33:05.791Z,24.10
2018-02-15T17:35:34.133Z,21.00
2018-02-15T17:38:02.506Z,19.23
2018-02-15T17:40:30.856Z,19.67
2018-02-15T17:42:59.600Z,18.60
2018-02-15T17:45:27.968Z,18.50
2018-02-15T17:47:56.331Z,19.70
2018-02-15T17:50:24.679Z,20.37
2018-02-15T17:52:53.427Z,19.47
2018-02-15T17:55:27.592Z,19.20
2018-02-15T17:57:56.290Z,19.50
2018-02-15T18:00:24.674Z,19.93
2018-02-15T18:02:53.054Z,18.67
2018-02-15T18:05:21.449Z,19.50
2018-02-15T18:07:49.800Z,20.23
2018-02-15T18:10:18.207Z,18.73
2018-02-15T18:12:46.555Z,20.67
2018-02-15T18:15:15.059Z,22.90
2018-02-15T18:17:43.407Z,19.60
2018-02-15T18:20:11.901Z,18.90
2018-02-15T18:22:40.299Z,22.00
2018-02-15T18:25:08.675Z,20.37
2018-02-15T18:27:37.044Z,18.80
2018-02-15T18:30:05.415Z,19.87
2018-02-15T18:32:33.822Z,21.00
2018-02-15T18:35:02.197Z,20.57
2018-02-15T18:37:30.550Z,19.37
2018-02-15T18:39:58.953Z,19.90
2018-02-15T18:42:27.329Z,20.50
2018-02-15T18:44:55.685Z,21.47
2018-02-15T18:47:26.800Z,21.10
2018-02-15T18:49:57.481Z,20.90
2018-02-15T18:52:26.228Z,21.13
2018-02-15T18:54:56.666Z,21.03
2018-02-15T18:57:25.691Z,20.53
2018-02-15T18:59:57.139Z,20.90
2018-02-15T19:02:28.186Z,21.00
2018-02-15T19:04:56.545Z,23.80
2018-02-15T19:07:25.389Z,22.40
2018-02-15T19:09:56.309Z,22.40
2018-02-15T19:12:26.695Z,19.90
2018-02-15T19:14:56.652Z,20.00
2018-02-15T19:17:25.370Z,19.57
2018-02-15T19:19:55.303Z,19.30
2018-02-15T19:22:24.651Z,19.37
2018-02-15T19:24:55.625Z,21.10
2018-02-15T19:27:26.431Z,20.40
2018-02-15T19:29:57.305Z,20.10
2018-02-15T19:32:28.542Z,21.30
2018-02-15T19:34:57.392Z,19.60
2018-02-15T19:37:25.779Z,19.67
2018-02-15T19:39:54.225Z,21.37
2018-02-15T19:42:22.630Z,20.30
2018-02-15T19:44:51.115Z,20.20
2018-02-15T19:47:19.459Z,18.90
2018-02-15T19:49:48.067Z,18.90
2018-02-15T19:52:16.443Z,18.20
2018-02-15T19:54:44.920Z,18.50
2018-02-15T19:57:13.320Z,19.27
2018-02-15T19:59:41.869Z,20.23
2018-02-15T20:02:10.264Z,17.97
2018-02-15T20:04:38.638Z,19.73
2018-02-15T20:07:07.114Z,18.80
2018-02-15T20:09:35.504Z,20.07
2018-02-15T20:12:03.982Z,18.10
2018-02-15T20:14:32.322Z,19.67
2018-02-15T20:17:01.173Z,20.60
2018-02-15T20:19:29.536Z,20.00
2018-02-15T20:21:57.898Z,18.10
2018-02-15T20:24:26.300Z,18.83
2018-02-15T20:27:00.099Z,19.23
2018-02-15T20:29:28.479Z,18.67
2018-02-15T20:31:56.861Z,20.83
2018-02-15T20:34:25.325Z,19.43
2018-02-15T20:36:53.673Z,18.70
2018-02-15T20:39:27.909Z,19.23
2018-02-15T20:41:56.385Z,19.27
2018-02-15T20:44:24.726Z,20.23
2018-02-15T20:46:53.105Z,22.10
2018-02-15T20:49:27.010Z,22.80
2018-02-15T20:52:01.184Z,21.33
2018-02-15T20:54:35.112Z,21.60
2018-02-15T20:57:03.553Z,23.23
2018-02-15T20:59:31.956Z,23.67
2018-02-15T21:02:00.321Z,25.03
2018-02-15T21:04:28.894Z,23.60
2018-02-15T21:06:57.244Z,24.97
2018-02-15T21:09:26.097Z,25.33
2018-02-15T21:11:54.893Z,23.37
2018-02-15T21:14:23.259Z,23.50
2018-02-15T21:16:51.678Z,23.37
2018-02-15T21:19:20.023Z,24.80
2018-02-15T21:21:48.809Z,25.20
2018-02-15T21:24:17.143Z,22.87
2018-02-15T21:26:45.974Z,24.43
2018-02-15T21:29:14.676Z,24.23
2018-02-15T21:31:43.149Z,25.07
2018-02-15T21:34:13.429Z,25.10
2018-02-15T21:36:44.627Z,25.80
2018-02-15T21:39:14.347Z,24.40
2018-02-15T21:41:43.262Z,25.47
2018-02-15T21:44:12.267Z,25.80
2018-02-15T21:46:42.929Z,25.37
2018-02-15T21:49:12.293Z,25.30
2018-02-15T21:51:42.807Z,26.27
2018-02-15T21:54:13.511Z,27.07
2018-02-15T21:56:41.905Z,25.90
2018-02-15T21:59:10.368Z,25.83
2018-02-15T22:01:38.846Z,25.00
2018-02-15T22:04:07.257Z,27.40
2018-02-15T22:06:38.031Z,24.17
2018-02-15T22:09:06.764Z,25.87
2018-02-15T22:11:37.685Z,26.40
2018-02-15T22:14:06.088Z,24.00
2018-02-15T22:16:34.416Z,24.87
2018-02-15T22:19:02.849Z,24.67
2018-02-15T22:21:31.645Z,27.47
2018-02-15T22:24:00.417Z,28.57
2018-02-15T22:26:29.211Z,27.47
2018-02-15T22:28:58.539Z,28.70
2018-02-15T22:31:27.757Z,29.10
2018-02-15T22:33:56.121Z,29.30
2018-02-15T22:36:24.956Z,30.23
2018-02-15T22:38:53.324Z,30.80
2018-02-15T22:41:21.689Z,29.53
2018-02-15T22:43:50.041Z,31.47
2018-02-15T22:46:18.887Z,28.77
2018-02-15T22:48:47.234Z,29.30
2018-02-15T22:51:15.592Z,29.30
2018-02-15T22:53:44.435Z,31.47
2018-02-15T22:56:12.786Z,31.10
2018-02-15T22:58:41.179Z,29.00
2018-02-15T23:01:09.535Z,29.57
2018-02-15T23:03:37.899Z,29.97
2018-02-15T23:06:06.732Z,30.83
2018-02-15T23:08:35.115Z,32.63
2018-02-15T23:11:03.488Z,29.23
2018-02-15T23:13:31.858Z,30.90
2018-02-15T23:16:00.211Z,30.83
2018-02-15T23:18:28.563Z,30.60
2018-02-15T23:20:57.920Z,30.80
2018-02-15T23:23:26.267Z,29.37
2018-02-15T23:25:54.621Z,29.70
2018-02-15T23:28:23.477Z,30.60
2018-02-15T23:30:51.955Z,28.70
2018-02-15T23:33:20.329Z,28.63
2018-02-15T23:35:48.672Z,27.80
2018-02-15T23:38:17.029Z,29.23
2018-02-15T23:40:45.886Z,27.93
2018-02-15T23:43:14.263Z,29.83
2018-02-15T23:45:42.601Z,29.20
2018-02-15T23:48:10.965Z,29.30
2018-02-15T23:50:39.707Z,27.53
2018-02-15T23:53:08.072Z,31.50
2018-02-15T23:55:36.458Z,29.20
2018-02-15T23:58:04.853Z,29.20
